createdAt,value
2019-04-29T00:01:34.254Z,4.50
2019-04-29T00:04:03.001Z,3.07
2019-04-29T00:06:32.271Z,2.20
2019-04-29T00:09:01.304Z,2.03
2019-04-29T00:11:31.012Z,2.70
2019-04-29T00:13:59.768Z,2.87
2019-04-29T00:16:50.099Z,2.47
2019-04-29T00:19:45.282Z,2.67
2019-04-29T00:22:14.557Z,2.77
2019-04-29T00:24:43.672Z,2.40
2019-04-29T00:27:12.478Z,3.10
2019-04-29T00:29:41.225Z,2.50
2019-04-29T00:32:10.018Z,3.00
2019-04-29T00:34:39.127Z,2.70
2019-04-29T00:37:19.003Z,2.90
2019-04-29T00:40:05.627Z,2.60
2019-04-29T00:43:11.559Z,2.23
2019-04-29T00:45:40.452Z,2.87
2019-04-29T00:48:09.516Z,3.13
2019-04-29T00:50:38.243Z,2.60
2019-04-29T00:53:07.510Z,2.80
2019-04-29T00:55:36.538Z,2.83
2019-04-29T00:58:05.560Z,4.77
2019-04-29T01:00:38.025Z,2.80
2019-04-29T01:03:07.505Z,2.60
2019-04-29T01:05:37.486Z,2.47
2019-04-29T01:08:06.223Z,2.90
2019-04-29T01:10:35.016Z,2.90
2019-04-29T01:13:03.786Z,2.50
2019-04-29T01:15:32.911Z,2.63
2019-04-29T01:18:01.621Z,3.03
2019-04-29T01:20:30.385Z,3.60
2019-04-29T01:22:59.712Z,2.50
2019-04-29T01:25:29.027Z,2.80
2019-04-29T01:28:03.435Z,2.00
2019-04-29T01:31:08.947Z,2.60
2019-04-29T01:33:37.714Z,3.00
2019-04-29T01:36:26.060Z,2.60
2019-04-29T01:39:08.255Z,2.60
2019-04-29T01:41:43.700Z,2.63
2019-04-29T01:44:12.436Z,2.20
2019-04-29T01:46:41.172Z,2.53
2019-04-29T01:49:10.044Z,2.00
2019-04-29T01:51:38.797Z,2.60
2019-04-29T01:54:07.713Z,2.70
2019-04-29T01:56:36.496Z,2.30
2019-04-29T01:59:05.362Z,2.67
2019-04-29T02:01:34.446Z,2.10
2019-04-29T02:04:03.895Z,3.13
2019-04-29T02:06:33.230Z,2.33
2019-04-29T02:09:02.423Z,2.20
2019-04-29T02:11:31.778Z,2.90
2019-04-29T02:14:00.531Z,2.30
2019-04-29T02:16:30.079Z,2.70
2019-04-29T02:18:59.783Z,2.00
2019-04-29T02:21:28.530Z,2.50
2019-04-29T02:24:17.854Z,2.20
2019-04-29T02:26:46.616Z,2.20
2019-04-29T02:29:15.403Z,2.10
2019-04-29T02:31:46.179Z,2.03
2019-04-29T02:34:14.835Z,1.97
2019-04-29T02:36:43.851Z,2.27
2019-04-29T02:39:24.120Z,2.13
2019-04-29T02:42:20.830Z,2.33
2019-04-29T02:44:50.166Z,2.80
2019-04-29T02:47:18.880Z,2.67
2019-04-29T02:49:47.532Z,2.40
2019-04-29T02:52:16.199Z,2.17
2019-04-29T02:54:45.931Z,2.57
2019-04-29T02:57:32.491Z,2.00
2019-04-29T03:00:13.549Z,2.00
2019-04-29T03:02:50.388Z,2.60
2019-04-29T03:05:27.774Z,2.43
2019-04-29T03:07:56.544Z,2.37
2019-04-29T03:10:25.204Z,2.60
2019-04-29T03:12:53.977Z,1.87
2019-04-29T03:15:32.711Z,2.50
2019-04-29T03:18:01.674Z,1.90
2019-04-29T03:20:52.622Z,2.13
2019-04-29T03:23:22.714Z,2.50
2019-04-29T03:25:51.638Z,2.30
2019-04-29T03:28:20.556Z,2.30
2019-04-29T03:30:49.248Z,2.00
2019-04-29T03:33:18.165Z,1.93
2019-04-29T03:35:47.198Z,1.80
2019-04-29T03:38:16.162Z,1.90
2019-04-29T03:40:45.122Z,2.10
2019-04-29T03:43:14.063Z,2.30
2019-04-29T03:45:42.739Z,2.23
2019-04-29T03:48:11.362Z,2.07
2019-04-29T03:50:40.016Z,2.17
2019-04-29T03:53:08.702Z,2.00
2019-04-29T03:55:40.476Z,1.90
2019-04-29T03:58:07.775Z,1.80
2019-04-29T04:00:36.572Z,2.07
2019-04-29T04:03:27.111Z,2.57
2019-04-29T04:06:10.193Z,2.17
2019-04-29T04:08:42.075Z,2.53
2019-04-29T04:11:10.759Z,2.50
2019-04-29T04:13:39.488Z,2.03
2019-04-29T04:16:10.487Z,2.13
2019-04-29T04:18:39.225Z,2.47
2019-04-29T04:21:08.480Z,2.30
2019-04-29T04:23:37.743Z,2.13
2019-04-29T04:26:06.722Z,2.40
2019-04-29T04:28:35.370Z,2.00
2019-04-29T04:31:07.060Z,2.40
2019-04-29T04:33:35.302Z,2.43
2019-04-29T04:36:04.620Z,2.40
2019-04-29T04:38:33.667Z,2.30
2019-04-29T04:41:05.471Z,2.20
2019-04-29T04:43:34.142Z,2.20
2019-04-29T04:46:02.918Z,2.60
2019-04-29T04:48:31.667Z,2.37
2019-04-29T04:51:00.448Z,2.70
2019-04-29T04:53:29.366Z,2.40
2019-04-29T04:56:00.072Z,2.50
2019-04-29T04:58:29.085Z,3.20
2019-04-29T05:00:57.839Z,2.80
2019-04-29T05:03:26.799Z,2.60
2019-04-29T05:05:57.569Z,3.00
2019-04-29T05:08:26.230Z,2.40
2019-04-29T05:10:55.262Z,2.40
2019-04-29T05:13:28.443Z,2.50
2019-04-29T05:15:55.608Z,2.97
2019-04-29T05:18:24.355Z,2.23
2019-04-29T05:20:53.607Z,2.47
2019-04-29T05:23:22.627Z,3.17
2019-04-29T05:25:51.526Z,2.23
2019-04-29T05:28:20.974Z,2.83
2019-04-29T05:30:49.910Z,2.13
2019-04-29T05:33:19.405Z,2.33
2019-04-29T05:36:01.858Z,2.50
2019-04-29T05:38:40.377Z,3.80
2019-04-29T05:41:09.344Z,4.37
2019-04-29T05:43:53.831Z,2.30
2019-04-29T05:46:37.238Z,2.47
2019-04-29T05:49:09.006Z,2.00
2019-04-29T05:51:44.128Z,2.20
2019-04-29T05:54:13.844Z,3.23
2019-04-29T05:56:42.786Z,2.10
2019-04-29T05:59:12.820Z,2.37
2019-04-29T06:01:42.696Z,2.47
2019-04-29T06:04:16.273Z,2.50
2019-04-29T06:06:44.504Z,2.00
2019-04-29T06:09:16.938Z,2.07
2019-04-29T06:11:43.867Z,1.80
2019-04-29T06:14:12.910Z,2.00
2019-04-29T06:16:41.871Z,2.10
2019-04-29T06:19:10.551Z,2.77
2019-04-29T06:21:39.250Z,2.10
2019-04-29T06:24:07.870Z,2.00
2019-04-29T06:26:36.784Z,2.17
2019-04-29T06:29:05.984Z,2.30
2019-04-29T06:31:35.418Z,1.80
2019-04-29T06:34:05.106Z,2.00
2019-04-29T06:36:35.030Z,1.87
2019-04-29T06:39:05.536Z,2.83
2019-04-29T06:41:34.257Z,2.03
2019-04-29T06:44:06.266Z,2.20
2019-04-29T06:46:33.269Z,5.17
2019-04-29T06:49:10.219Z,2.30
2019-04-29T06:51:32.395Z,2.23
2019-04-29T06:54:01.060Z,1.53
2019-04-29T06:56:29.702Z,2.10
2019-04-29T06:58:58.371Z,1.70
2019-04-29T07:01:27.056Z,1.90
2019-04-29T07:03:59.917Z,1.77
2019-04-29T07:06:27.769Z,1.63
2019-04-29T07:08:56.422Z,1.83
2019-04-29T07:11:25.630Z,1.70
2019-04-29T07:13:57.548Z,2.63
2019-04-29T07:16:27.196Z,1.87
2019-04-29T07:18:55.778Z,1.87
2019-04-29T07:21:24.459Z,1.80
2019-04-29T07:23:53.118Z,1.87
2019-04-29T07:26:21.791Z,2.27
2019-04-29T07:28:53.267Z,1.70
2019-04-29T07:31:20.871Z,2.23
2019-04-29T07:33:49.511Z,2.00
2019-04-29T07:36:18.600Z,3.37
2019-04-29T07:38:51.654Z,2.40
2019-04-29T07:41:20.845Z,3.27
2019-04-29T07:43:49.760Z,2.63
2019-04-29T07:46:24.906Z,3.27
2019-04-29T07:49:01.410Z,2.60
2019-04-29T07:51:24.705Z,2.90
2019-04-29T07:53:53.346Z,3.00
2019-04-29T07:56:22.051Z,2.53
2019-04-29T07:58:50.692Z,4.20
2019-04-29T08:01:23.906Z,3.27
2019-04-29T08:03:50.136Z,3.83
2019-04-29T08:06:19.094Z,2.47
2019-04-29T08:08:54.649Z,2.50
2019-04-29T08:11:18.619Z,3.10
2019-04-29T08:13:47.450Z,3.20
2019-04-29T08:16:17.216Z,3.00
2019-04-29T08:18:49.590Z,3.27
2019-04-29T08:21:18.187Z,2.97
2019-04-29T08:23:46.895Z,2.90
2019-04-29T08:26:15.643Z,3.33
2019-04-29T08:28:44.573Z,2.83
2019-04-29T08:31:16.580Z,3.13
2019-04-29T08:33:46.732Z,3.13
2019-04-29T08:36:14.351Z,5.73
2019-04-29T08:38:43.016Z,3.97
2019-04-29T08:41:11.690Z,3.97
2019-04-29T08:44:15.640Z,3.67
2019-04-29T08:46:51.651Z,3.83
2019-04-29T08:49:19.813Z,6.60
2019-04-29T08:51:48.534Z,2.80
2019-04-29T08:54:19.978Z,4.50
2019-04-29T08:57:02.605Z,3.90
2019-04-29T08:59:20.736Z,4.37
2019-04-29T09:01:49.375Z,3.17
2019-04-29T09:04:18.310Z,5.33
2019-04-29T09:06:47.503Z,6.13
2019-04-29T09:09:28.734Z,3.70
2019-04-29T09:11:48.047Z,4.77
2019-04-29T09:14:18.296Z,4.13
2019-04-29T09:16:47.303Z,4.80
2019-04-29T09:19:16.406Z,4.03
2019-04-29T09:21:46.836Z,6.20
2019-04-29T09:24:16.062Z,4.40
2019-04-29T09:26:49.614Z,4.90
2019-04-29T09:29:37.518Z,7.90
2019-04-29T09:32:07.139Z,5.47
2019-04-29T09:34:35.885Z,5.07
2019-04-29T09:37:04.766Z,6.00
2019-04-29T09:39:42.819Z,5.23
2019-04-29T09:42:20.111Z,5.10
2019-04-29T09:45:19.484Z,5.10
2019-04-29T09:47:47.412Z,5.87
2019-04-29T09:50:16.127Z,4.40
2019-04-29T09:52:44.875Z,4.60
2019-04-29T09:55:13.868Z,4.90
2019-04-29T09:57:42.778Z,4.03
2019-04-29T10:00:19.166Z,4.27
2019-04-29T10:03:02.474Z,4.70
2019-04-29T10:05:36.778Z,7.17
2019-04-29T10:08:05.666Z,4.50
2019-04-29T10:10:37.249Z,4.90
2019-04-29T10:13:05.150Z,7.80
2019-04-29T10:15:41.541Z,5.43
2019-04-29T10:18:17.294Z,4.20
2019-04-29T10:20:58.236Z,4.60
2019-04-29T10:23:27.202Z,6.93
2019-04-29T10:25:56.132Z,5.17
2019-04-29T10:28:25.084Z,4.40
2019-04-29T10:30:54.242Z,7.43
2019-04-29T10:33:23.238Z,4.30
2019-04-29T10:35:51.900Z,6.63
2019-04-29T10:38:20.643Z,3.80
2019-04-29T10:41:20.027Z,6.30
2019-04-29T10:44:16.869Z,5.07
2019-04-29T10:47:04.862Z,5.87
2019-04-29T10:49:39.256Z,5.17
2019-04-29T10:52:09.057Z,4.87
2019-04-29T10:54:38.407Z,5.87
2019-04-29T10:57:10.511Z,5.13
2019-04-29T10:59:40.743Z,4.47
2019-04-29T11:02:32.733Z,4.57
2019-04-29T11:05:23.365Z,10.33
2019-04-29T11:07:58.080Z,5.27
2019-04-29T11:10:29.782Z,5.37
2019-04-29T11:12:58.420Z,5.30
2019-04-29T11:15:34.150Z,4.73
2019-04-29T11:18:03.673Z,4.30
2019-04-29T11:20:32.926Z,5.10
2019-04-29T11:23:35.666Z,5.10
2019-04-29T11:26:21.953Z,4.27
2019-04-29T11:28:52.354Z,4.03
2019-04-29T11:31:21.091Z,4.37
2019-04-29T11:34:11.527Z,4.53
2019-04-29T11:36:43.965Z,4.80
2019-04-29T11:39:13.833Z,4.37
2019-04-29T11:41:41.436Z,4.33
2019-04-29T11:44:10.422Z,6.47
2019-04-29T11:46:39.694Z,4.60
2019-04-29T11:49:09.491Z,4.43
2019-04-29T11:52:08.434Z,4.27
2019-04-29T11:54:19.463Z,8.17
2019-04-29T11:56:48.204Z,4.80
2019-04-29T11:59:34.984Z,4.10
2019-04-29T12:02:23.441Z,3.93
2019-04-29T12:04:53.818Z,5.87
2019-04-29T12:07:22.997Z,4.33
2019-04-29T12:09:53.712Z,5.70
2019-04-29T12:12:23.230Z,4.80
2019-04-29T12:15:03.107Z,4.70
2019-04-29T12:17:42.730Z,4.40
2019-04-29T12:20:33.611Z,4.13
2019-04-29T12:23:02.407Z,4.00
2019-04-29T12:25:31.647Z,4.27
2019-04-29T12:28:01.865Z,4.23
2019-04-29T12:30:36.389Z,4.20
2019-04-29T12:33:10.007Z,3.97
2019-04-29T12:35:53.244Z,5.77
2019-04-29T12:38:49.727Z,3.93
2019-04-29T12:41:48.712Z,4.50
2019-04-29T12:44:13.512Z,3.80
2019-04-29T12:46:45.102Z,4.23
2019-04-29T12:49:14.303Z,4.33
2019-04-29T12:51:43.586Z,4.00
2019-04-29T12:54:12.598Z,4.50
2019-04-29T12:56:43.292Z,4.00
2019-04-29T12:59:12.850Z,3.90
2019-04-29T13:02:00.275Z,4.37
2019-04-29T13:04:54.785Z,5.23
2019-04-29T13:07:48.732Z,3.97
2019-04-29T13:10:29.468Z,4.63
2019-04-29T13:12:58.471Z,3.57
2019-04-29T13:15:43.855Z,4.20
2019-04-29T13:18:23.035Z,3.97
2019-04-29T13:20:50.465Z,3.97
2019-04-29T13:23:30.010Z,3.83
2019-04-29T13:25:51.036Z,3.90
2019-04-29T13:28:29.878Z,4.10
2019-04-29T13:30:51.537Z,3.83
2019-04-29T13:33:19.738Z,3.90
2019-04-29T13:35:49.683Z,4.07
2019-04-29T13:38:18.547Z,4.03
2019-04-29T13:40:47.779Z,4.00
2019-04-29T13:43:20.719Z,4.20
2019-04-29T13:46:06.297Z,4.20
2019-04-29T13:48:55.967Z,4.00
2019-04-29T13:51:35.094Z,4.30
2019-04-29T13:53:59.859Z,4.73
2019-04-29T13:56:34.955Z,3.53
2019-04-29T13:58:58.744Z,4.03
2019-04-29T14:02:00.082Z,4.40
2019-04-29T14:04:26.881Z,5.33
2019-04-29T14:06:57.360Z,5.03
2019-04-29T14:09:26.282Z,4.30
2019-04-29T14:12:02.028Z,4.47
2019-04-29T14:14:28.270Z,5.23
2019-04-29T14:17:17.021Z,11.47
2019-04-29T14:19:40.785Z,4.17
2019-04-29T14:21:57.562Z,6.47
2019-04-29T14:24:26.540Z,4.17
2019-04-29T14:26:55.514Z,3.60
2019-04-29T14:29:28.661Z,3.60
2019-04-29T14:31:59.340Z,4.23
2019-04-29T14:34:34.935Z,6.37
2019-04-29T14:37:19.607Z,5.47
2019-04-29T14:39:37.326Z,3.80
2019-04-29T14:42:13.068Z,5.03
2019-04-29T14:44:49.109Z,5.13
2019-04-29T14:47:42.867Z,5.63
2019-04-29T14:50:15.638Z,4.20
2019-04-29T14:52:44.800Z,4.10
2019-04-29T14:55:15.017Z,4.53
2019-04-29T14:57:43.808Z,3.73
2019-04-29T15:00:22.944Z,5.00
2019-04-29T15:02:51.877Z,4.90
2019-04-29T15:05:22.392Z,4.83
2019-04-29T15:07:51.487Z,4.10
2019-04-29T15:10:20.204Z,4.37
2019-04-29T15:13:06.794Z,4.80
2019-04-29T15:15:43.709Z,4.63
2019-04-29T15:18:45.889Z,4.30
2019-04-29T15:21:06.984Z,5.97
2019-04-29T15:23:37.424Z,5.53
2019-04-29T15:26:06.411Z,5.33
2019-04-29T15:28:50.826Z,5.57
2019-04-29T15:31:21.157Z,7.70
2019-04-29T15:33:50.367Z,8.80
2019-04-29T15:36:19.694Z,4.37
2019-04-29T15:39:08.082Z,4.63
2019-04-29T15:41:19.268Z,4.20
2019-04-29T15:43:48.810Z,5.50
2019-04-29T15:46:18.254Z,4.90
2019-04-29T15:48:47.398Z,5.47
2019-04-29T15:51:16.733Z,4.63
2019-04-29T15:53:47.738Z,5.40
2019-04-29T15:56:28.245Z,5.77
2019-04-29T15:58:47.184Z,5.57
2019-04-29T16:01:18.060Z,7.93
2019-04-29T16:03:49.996Z,8.50
2019-04-29T16:06:39.961Z,5.60
2019-04-29T16:09:23.523Z,5.80
2019-04-29T16:11:59.197Z,5.60
2019-04-29T16:14:28.139Z,6.67
2019-04-29T16:16:56.938Z,5.77
2019-04-29T16:19:58.371Z,6.10
2019-04-29T16:22:27.320Z,10.30
2019-04-29T16:27:27.278Z,9.20
2019-04-29T16:29:55.951Z,6.17
2019-04-29T16:32:34.311Z,6.30
2019-04-29T16:35:03.381Z,6.07
2019-04-29T16:37:33.365Z,8.30
2019-04-29T16:40:02.506Z,7.53
2019-04-29T16:42:37.543Z,7.30
2019-04-29T16:45:11.967Z,7.20
2019-04-29T16:47:37.799Z,6.30
2019-04-29T16:50:06.849Z,5.97
2019-04-29T16:52:36.235Z,7.33
2019-04-29T16:55:05.971Z,5.60
2019-04-29T16:57:35.275Z,5.90
2019-04-29T17:00:06.512Z,8.90
2019-04-29T17:02:36.253Z,6.57
2019-04-29T17:05:06.333Z,7.23
2019-04-29T17:07:36.362Z,7.00
2019-04-29T17:10:23.596Z,13.30
2019-04-29T17:12:53.149Z,12.10
2019-04-29T17:15:25.518Z,7.13
2019-04-29T17:17:52.828Z,6.87
2019-04-29T17:20:21.987Z,7.50
2019-04-29T17:22:50.835Z,8.33
2019-04-29T17:25:20.279Z,6.40
2019-04-29T17:28:11.917Z,12.83
2019-04-29T17:31:17.048Z,8.60
2019-04-29T17:33:59.202Z,10.50
2019-04-29T17:35:15.681Z,6.30
2019-04-29T17:36:28.584Z,8.77
2019-04-29T17:38:58.029Z,7.83
2019-04-29T17:41:26.898Z,8.03
2019-04-29T17:44:05.967Z,7.90
2019-04-29T17:46:44.507Z,7.30
2019-04-29T17:49:22.118Z,9.90
2019-04-29T17:51:51.629Z,10.37
2019-04-29T17:54:26.875Z,9.47
2019-04-29T17:57:25.083Z,10.80
2019-04-29T17:59:52.852Z,7.70
2019-04-29T18:02:59.271Z,7.90
2019-04-29T18:05:55.067Z,7.97
2019-04-29T18:08:34.122Z,8.13
2019-04-29T18:11:07.821Z,9.07
2019-04-29T18:13:35.385Z,9.10
2019-04-29T18:16:17.100Z,7.90
2019-04-29T18:18:48.935Z,7.70
2019-04-29T18:21:37.284Z,11.17
2019-04-29T18:24:35.857Z,9.33
2019-04-29T18:27:04.002Z,12.60
2019-04-29T18:29:36.320Z,14.40
2019-04-29T18:32:09.325Z,9.73
2019-04-29T18:35:01.647Z,9.93
2019-04-29T18:37:34.234Z,10.60
2019-04-29T18:40:02.442Z,8.23
2019-04-29T18:42:32.520Z,8.60
2019-04-29T18:45:01.279Z,13.97
2019-04-29T18:47:34.810Z,11.20
2019-04-29T18:50:00.871Z,12.67
2019-04-29T18:52:29.951Z,8.67
2019-04-29T18:54:59.633Z,9.50
2019-04-29T18:57:30.899Z,9.40
2019-04-29T18:59:59.480Z,8.43
2019-04-29T19:02:32.107Z,10.13
2019-04-29T19:05:21.079Z,10.93
2019-04-29T19:07:55.329Z,10.60
2019-04-29T19:10:32.018Z,9.87
2019-04-29T19:12:58.198Z,10.63
2019-04-29T19:15:21.548Z,9.13
2019-04-29T19:17:59.124Z,9.47
2019-04-29T19:20:21.048Z,10.37
2019-04-29T19:22:55.748Z,9.63
2019-04-29T19:25:20.725Z,9.27
2019-04-29T19:27:49.565Z,11.30
2019-04-29T19:30:21.200Z,9.67
2019-04-29T19:32:48.927Z,10.67
2019-04-29T19:35:17.719Z,10.87
2019-04-29T19:37:46.744Z,10.70
2019-04-29T19:40:15.905Z,13.60
2019-04-29T19:42:46.869Z,15.87
2019-04-29T19:45:17.244Z,11.57
2019-04-29T19:47:49.847Z,10.43
2019-04-29T19:50:19.536Z,12.50
2019-04-29T19:52:47.537Z,16.70
2019-04-29T19:55:17.193Z,11.13
2019-04-29T19:57:48.377Z,13.80
2019-04-29T20:00:17.769Z,10.50
2019-04-29T20:02:50.119Z,10.70
2019-04-29T20:05:23.941Z,11.47
2019-04-29T20:07:55.908Z,15.40
2019-04-29T20:10:28.063Z,11.23
2019-04-29T20:12:57.315Z,11.43
2019-04-29T20:15:26.046Z,10.67
2019-04-29T20:18:12.851Z,11.77
2019-04-29T20:20:46.254Z,12.57
2019-04-29T20:23:20.008Z,10.90
2019-04-29T20:25:48.433Z,10.87
2019-04-29T20:28:19.996Z,13.30
2019-04-29T20:30:50.444Z,15.40
2019-04-29T20:33:18.307Z,12.37
2019-04-29T20:35:49.101Z,9.90
2019-04-29T20:38:17.728Z,10.50
2019-04-29T20:40:46.853Z,11.20
2019-04-29T20:43:16.234Z,13.13
2019-04-29T20:45:45.856Z,10.63
2019-04-29T20:48:19.210Z,13.50
2019-04-29T20:50:52.431Z,12.60
2019-04-29T20:53:22.664Z,11.27
2019-04-29T20:55:51.939Z,11.13
2019-04-29T20:58:23.665Z,16.60
2019-04-29T21:00:51.931Z,13.53
2019-04-29T21:03:29.928Z,11.73
2019-04-29T21:05:54.899Z,16.23
2019-04-29T21:08:23.181Z,11.70
2019-04-29T21:10:55.452Z,13.07
2019-04-29T21:13:41.778Z,13.80
2019-04-29T21:16:15.231Z,10.07
2019-04-29T21:18:45.537Z,11.83
2019-04-29T21:21:15.252Z,11.37
2019-04-29T21:23:45.738Z,13.60
2019-04-29T21:26:15.880Z,11.70
2019-04-29T21:28:47.043Z,12.37
2019-04-29T21:31:19.031Z,14.50
2019-04-29T21:33:50.779Z,12.63
2019-04-29T21:36:30.699Z,13.17
2019-04-29T21:39:07.191Z,11.63
2019-04-29T21:41:45.772Z,13.00
2019-04-29T21:44:14.228Z,13.30
2019-04-29T21:46:43.015Z,11.60
2019-04-29T21:49:12.717Z,12.23
2019-04-29T21:51:41.866Z,13.10
2019-04-29T21:54:14.202Z,12.73
2019-04-29T21:56:46.953Z,11.80
2019-04-29T21:59:15.752Z,14.67
2019-04-29T22:01:45.008Z,13.17
2019-04-29T22:04:13.774Z,14.23
2019-04-29T22:06:42.828Z,11.23
2019-04-29T22:09:12.752Z,13.37
2019-04-29T22:11:43.564Z,12.13
2019-04-29T22:14:14.110Z,14.07
2019-04-29T22:16:47.602Z,15.00
2019-04-29T22:19:14.882Z,14.20
2019-04-29T22:21:45.888Z,13.83
2019-04-29T22:24:15.228Z,14.40
2019-04-29T22:26:45.050Z,11.60
2019-04-29T22:29:14.257Z,11.40
2019-04-29T22:31:43.628Z,13.23
2019-04-29T22:34:15.103Z,12.60
2019-04-29T22:36:43.260Z,12.07
2019-04-29T22:39:12.239Z,13.80
2019-04-29T22:42:00.907Z,13.37
2019-04-29T22:44:29.830Z,11.23
2019-04-29T22:46:59.203Z,15.10
2019-04-29T22:49:29.297Z,13.03
2019-04-29T22:51:58.465Z,12.50
2019-04-29T22:54:27.276Z,12.33
2019-04-29T22:56:56.740Z,13.33
2019-04-29T22:59:27.509Z,11.03
2019-04-29T23:01:56.325Z,13.57
2019-04-29T23:04:25.396Z,13.57
2019-04-29T23:06:54.430Z,11.50
2019-04-29T23:09:23.492Z,13.50
2019-04-29T23:11:52.307Z,12.03
2019-04-29T23:14:21.102Z,19.00
2019-04-29T23:16:50.292Z,13.07
2019-04-29T23:19:19.708Z,14.37
2019-04-29T23:22:15.432Z,13.57
2019-04-29T23:25:06.223Z,12.30
2019-04-29T23:27:36.052Z,14.30
2019-04-29T23:30:05.996Z,15.77
2019-04-29T23:32:35.279Z,12.27
2019-04-29T23:35:08.274Z,13.20
2019-04-29T23:37:35.904Z,12.80
2019-04-29T23:40:05.885Z,12.03
2019-04-29T23:42:35.106Z,14.30
2019-04-29T23:45:05.282Z,13.73
2019-04-29T23:47:35.755Z,13.90
2019-04-29T23:50:05.801Z,17.00
2019-04-29T23:52:35.930Z,16.87
2019-04-29T23:55:07.598Z,11.50
2019-04-29T23:57:55.587Z,11.37
